createdAt,value
2023-02-03T00:01:26.813Z,101298.84
2023-02-03T00:03:55.112Z,101298.88
2023-02-03T00:06:23.341Z,101297.81
2023-02-03T00:08:55.833Z,101299.05
2023-02-03T00:11:24.021Z,101304.38
2023-02-03T00:13:52.319Z,101303.91
2023-02-03T00:16:26.143Z,101299.15
2023-02-03T00:18:54.451Z,101297.68
2023-02-03T00:21:22.486Z,101295.30
2023-02-03T00:23:50.478Z,101294.81
2023-02-03T00:26:18.887Z,101292.27
2023-02-03T00:28:48.955Z,101291.88
2023-02-03T00:31:36.515Z,101287.59
2023-02-03T00:34:04.633Z,101285.23
2023-02-03T00:36:32.823Z,101289.77
2023-02-03T00:39:01.872Z,101286.57
2023-02-03T00:41:34.246Z,101273.30
2023-02-03T00:44:02.397Z,101267.46
2023-02-03T00:46:30.372Z,101263.83
2023-02-03T00:48:58.615Z,101257.81
2023-02-03T00:51:26.693Z,101252.62
2023-02-03T00:53:56.022Z,101250.31
2023-02-03T00:56:24.401Z,101245.83
2023-02-03T00:58:52.537Z,101241.87
2023-02-03T01:01:20.650Z,101237.13
2023-02-03T01:03:48.800Z,101236.16
2023-02-03T01:06:20.714Z,101230.90
2023-02-03T01:08:49.771Z,101221.90
2023-02-03T01:11:20.359Z,101217.58
2023-02-03T01:14:08.217Z,101205.61
2023-02-03T01:16:38.664Z,101198.56
2023-02-03T01:19:06.725Z,101198.23
2023-02-03T01:21:36.777Z,101198.76
2023-02-03T01:24:04.997Z,101195.88
2023-02-03T01:26:32.992Z,101193.89
2023-02-03T01:29:02.244Z,101192.20
2023-02-03T01:31:37.274Z,101188.83
2023-02-03T01:34:13.146Z,101186.92
2023-02-03T01:36:41.820Z,101190.66
2023-02-03T01:39:10.908Z,101190.67
2023-02-03T01:41:39.885Z,101190.17
2023-02-03T01:44:39.677Z,101190.45
2023-02-03T01:47:23.358Z,101192.26
2023-02-03T01:50:30.749Z,101195.31
2023-02-03T01:53:04.511Z,101188.66
2023-02-03T01:55:40.893Z,101181.47
2023-02-03T01:58:24.995Z,101180.77
2023-02-03T02:00:55.815Z,101178.35
2023-02-03T02:03:28.677Z,101170.82
2023-02-03T02:06:03.821Z,101162.92
2023-02-03T02:08:32.331Z,101155.73
2023-02-03T02:11:01.579Z,101154.56
2023-02-03T02:13:32.263Z,101151.02
2023-02-03T02:16:16.896Z,101149.48
2023-02-03T02:19:17.539Z,101146.05
2023-02-03T02:21:59.802Z,101136.96
2023-02-03T02:24:55.433Z,101125.00
2023-02-03T02:27:41.667Z,101121.40
2023-02-03T02:30:34.976Z,101115.05
2023-02-03T02:33:14.379Z,101106.25
2023-02-03T02:36:21.877Z,101100.54
2023-02-03T02:38:59.497Z,101102.23
2023-02-03T02:41:47.187Z,101103.60
2023-02-03T02:44:25.835Z,101102.77
2023-02-03T02:46:58.297Z,101101.95
2023-02-03T02:49:36.082Z,101099.89
2023-02-03T02:52:07.537Z,101095.09
2023-02-03T02:54:41.063Z,101094.56
2023-02-03T02:57:13.103Z,101089.05
2023-02-03T03:00:00.246Z,101084.71
2023-02-03T03:02:36.936Z,101083.34
2023-02-03T03:05:09.248Z,101083.48
2023-02-03T03:07:53.478Z,101074.92
2023-02-03T03:10:25.423Z,101067.00
2023-02-03T03:12:57.574Z,101064.94
2023-02-03T03:15:30.863Z,101059.62
2023-02-03T03:18:22.114Z,101054.30
2023-02-03T03:20:53.659Z,101047.96
2023-02-03T03:23:30.310Z,101048.30
2023-02-03T03:26:08.733Z,101043.20
2023-02-03T03:29:14.968Z,101037.19
2023-02-03T03:31:44.086Z,101029.30
2023-02-03T03:34:13.715Z,101029.31
2023-02-03T03:36:52.701Z,101025.36
2023-02-03T03:39:24.563Z,101018.52
2023-02-03T03:42:13.021Z,101022.98
2023-02-03T03:45:08.174Z,101027.27
2023-02-03T03:48:04.342Z,101022.58
2023-02-03T03:50:37.021Z,101014.52
2023-02-03T03:53:07.769Z,101011.75
2023-02-03T03:55:38.576Z,101009.39
2023-02-03T03:58:31.849Z,101002.55
2023-02-03T04:01:06.228Z,101001.82
2023-02-03T04:03:48.581Z,100998.23
2023-02-03T04:06:16.820Z,100991.21
2023-02-03T04:08:44.783Z,100987.45
2023-02-03T04:11:32.819Z,100981.45
2023-02-03T04:14:00.905Z,100978.85
2023-02-03T04:16:29.273Z,100976.80
2023-02-03T04:18:57.378Z,100976.27
2023-02-03T04:21:25.343Z,100973.76
2023-02-03T04:23:53.382Z,100970.85
2023-02-03T04:26:21.614Z,100972.05
2023-02-03T04:28:49.964Z,100962.13
2023-02-03T04:31:18.253Z,100954.61
2023-02-03T04:33:46.417Z,100948.61
2023-02-03T04:36:15.295Z,100943.34
2023-02-03T04:38:43.361Z,100945.20
2023-02-03T04:41:11.401Z,100938.85
2023-02-03T04:43:39.486Z,100937.16
2023-02-03T04:46:07.682Z,100930.48
2023-02-03T04:48:36.279Z,100925.69
2023-02-03T04:51:07.337Z,100918.83
2023-02-03T04:53:54.186Z,100911.95
2023-02-03T04:56:22.283Z,100907.83
2023-02-03T04:58:50.246Z,100902.49
2023-02-03T05:01:18.438Z,100894.62
2023-02-03T05:03:47.183Z,100886.77
2023-02-03T05:06:15.156Z,100884.73
2023-02-03T05:08:43.504Z,100877.95
2023-02-03T05:11:11.803Z,100874.59
2023-02-03T05:13:39.781Z,100866.23
2023-02-03T05:16:07.874Z,100865.73
2023-02-03T05:18:36.104Z,100857.40
2023-02-03T05:21:04.494Z,100852.60
2023-02-03T05:23:34.891Z,100849.00
2023-02-03T05:26:04.458Z,100842.34
2023-02-03T05:28:32.523Z,100836.90
2023-02-03T05:31:02.212Z,100832.13
2023-02-03T05:33:30.655Z,100829.73
2023-02-03T05:35:58.683Z,100827.30
2023-02-03T05:38:26.789Z,100819.62
2023-02-03T05:41:32.386Z,100811.77
2023-02-03T05:44:00.644Z,100808.40
2023-02-03T05:46:28.695Z,100803.27
2023-02-03T05:48:56.698Z,100797.13
2023-02-03T05:51:25.249Z,100792.02
2023-02-03T05:53:53.828Z,100786.38
2023-02-03T05:56:21.918Z,100781.61
2023-02-03T05:58:53.357Z,100782.48
2023-02-03T06:01:22.284Z,100776.83
2023-02-03T06:03:50.587Z,100769.60
2023-02-03T06:06:37.591Z,100763.77
2023-02-03T06:09:08.427Z,100765.48
2023-02-03T06:11:36.993Z,100764.26
2023-02-03T06:14:05.350Z,100754.17
2023-02-03T06:16:33.541Z,100750.23
2023-02-03T06:19:02.310Z,100745.20
2023-02-03T06:21:30.406Z,100742.55
2023-02-03T06:23:58.578Z,100729.52
2023-02-03T06:26:26.665Z,100722.43
2023-02-03T06:28:54.685Z,100713.55
2023-02-03T06:31:23.048Z,100709.95
2023-02-03T06:33:51.211Z,100705.65
2023-02-03T06:36:19.316Z,100704.30
2023-02-03T06:38:47.299Z,100696.70
2023-02-03T06:41:15.448Z,100693.02
2023-02-03T06:43:43.557Z,100685.92
2023-02-03T06:46:11.619Z,100680.14
2023-02-03T06:48:39.754Z,100666.89
2023-02-03T06:51:07.931Z,100655.88
2023-02-03T06:53:36.054Z,100651.37
2023-02-03T06:56:04.223Z,100648.40
2023-02-03T06:58:32.701Z,100638.14
2023-02-03T07:01:00.737Z,100637.75
2023-02-03T07:03:28.849Z,100631.92
2023-02-03T07:05:57.292Z,100627.64
2023-02-03T07:08:25.358Z,100618.83
2023-02-03T07:11:13.605Z,100608.30
2023-02-03T07:13:41.896Z,100597.22
2023-02-03T07:16:10.017Z,100589.52
2023-02-03T07:18:53.334Z,100584.67
2023-02-03T07:21:21.526Z,100582.86
2023-02-03T07:23:50.158Z,100580.58
2023-02-03T07:26:19.156Z,100578.19
2023-02-03T07:28:47.560Z,100573.36
2023-02-03T07:31:16.314Z,100565.16
2023-02-03T07:33:44.498Z,100561.20
2023-02-03T07:36:12.861Z,100554.35
2023-02-03T07:38:41.042Z,100549.59
2023-02-03T07:41:09.273Z,100541.37
2023-02-03T07:43:37.643Z,100540.24
2023-02-03T07:46:05.982Z,100540.44
2023-02-03T07:48:34.220Z,100535.20
2023-02-03T07:51:02.324Z,100524.16
2023-02-03T07:53:31.279Z,100517.21
2023-02-03T07:56:03.690Z,100516.11
2023-02-03T07:58:31.740Z,100516.23
2023-02-03T08:01:00.318Z,100507.01
2023-02-03T08:03:28.454Z,100494.38
2023-02-03T08:05:56.608Z,100487.90
2023-02-03T08:08:24.624Z,100479.54
2023-02-03T08:10:56.201Z,100469.33
2023-02-03T08:13:24.302Z,100463.02
2023-02-03T08:15:52.973Z,100456.38
2023-02-03T08:18:21.310Z,100450.92
2023-02-03T08:20:49.908Z,100449.21
2023-02-03T08:23:18.085Z,100446.50
2023-02-03T08:25:51.071Z,100439.89
2023-02-03T08:28:19.842Z,100431.92
2023-02-03T08:30:48.291Z,100431.50
2023-02-03T08:33:16.486Z,100426.46
2023-02-03T08:35:49.940Z,100423.08
2023-02-03T08:38:18.062Z,100410.30
2023-02-03T08:40:46.245Z,100410.53
2023-02-03T08:43:14.357Z,100406.50
2023-02-03T08:45:42.512Z,100402.66
2023-02-03T08:48:10.728Z,100399.11
2023-02-03T08:50:42.780Z,100390.25
2023-02-03T08:53:11.261Z,100384.30
2023-02-03T08:55:40.292Z,100376.30
2023-02-03T08:58:08.414Z,100369.17
2023-02-03T09:00:36.686Z,100364.59
2023-02-03T09:03:04.836Z,100347.34
2023-02-03T09:05:33.778Z,100341.20
2023-02-03T09:08:02.198Z,100332.66
2023-02-03T09:10:30.773Z,100325.66
2023-02-03T09:12:59.108Z,100320.88
2023-02-03T09:15:27.254Z,100317.65
2023-02-03T09:17:57.561Z,100312.36
2023-02-03T09:20:26.465Z,100303.81
2023-02-03T09:22:55.141Z,100302.13
2023-02-03T09:25:23.149Z,100295.42
2023-02-03T09:27:51.206Z,100286.50
2023-02-03T09:30:19.795Z,100279.49
2023-02-03T09:32:54.164Z,100270.74
2023-02-03T09:35:22.717Z,100271.41
2023-02-03T09:37:50.943Z,100265.73
2023-02-03T09:40:25.181Z,100257.02
2023-02-03T09:43:04.018Z,100246.21
2023-02-03T09:45:32.342Z,100234.41
2023-02-03T09:48:06.319Z,100223.45
2023-02-03T09:50:38.035Z,100220.52
2023-02-03T09:53:19.654Z,100219.45
2023-02-03T09:55:48.761Z,100212.71
2023-02-03T09:58:21.126Z,100205.46
2023-02-03T10:00:54.435Z,100197.73
2023-02-03T10:03:44.635Z,100187.11
2023-02-03T10:06:35.585Z,100173.06
2023-02-03T10:09:35.052Z,100163.28
2023-02-03T10:12:41.169Z,100157.23
2023-02-03T10:15:25.103Z,100147.63
2023-02-03T10:18:12.895Z,100141.11
2023-02-03T10:20:52.132Z,100133.39
2023-02-03T10:23:29.841Z,100122.09
2023-02-03T10:26:00.764Z,100115.39
2023-02-03T10:28:44.256Z,100104.09
2023-02-03T10:31:20.551Z,100097.55
2023-02-03T10:33:55.436Z,100083.87
2023-02-03T10:36:50.728Z,100076.33
2023-02-03T10:39:28.293Z,100064.20
2023-02-03T10:41:56.692Z,100058.90
2023-02-03T10:44:36.880Z,100054.44
2023-02-03T10:47:30.621Z,100039.57
2023-02-03T10:50:01.874Z,100031.36
2023-02-03T10:52:35.582Z,100016.66
2023-02-03T10:55:09.149Z,100012.21
2023-02-03T10:57:39.508Z,100000.23
2023-02-03T11:00:23.829Z,99990.51
2023-02-03T11:03:14.868Z,99980.08
2023-02-03T11:05:43.576Z,99969.16
2023-02-03T11:08:17.628Z,99958.91
2023-02-03T11:10:45.809Z,99949.87
2023-02-03T11:13:22.356Z,99943.21
2023-02-03T11:15:54.237Z,99936.21
2023-02-03T11:18:53.372Z,99931.27
2023-02-03T11:21:25.914Z,99919.00
2023-02-03T11:24:06.274Z,99907.89
2023-02-03T11:26:43.678Z,99907.73
2023-02-03T11:29:32.441Z,99896.83
2023-02-03T11:32:04.752Z,99891.36
2023-02-03T11:34:42.948Z,99886.40
2023-02-03T11:37:41.529Z,99875.99
2023-02-03T11:40:12.495Z,99882.48
2023-02-03T11:42:43.567Z,99877.69
2023-02-03T11:45:24.998Z,99876.16
2023-02-03T11:47:56.323Z,99870.88
2023-02-03T11:50:48.305Z,99865.41
2023-02-03T11:53:29.504Z,99864.20
2023-02-03T11:56:31.671Z,99855.32
2023-02-03T11:59:21.056Z,99848.33
2023-02-03T12:02:23.567Z,99831.27
2023-02-03T12:05:07.313Z,99830.08
2023-02-03T12:07:53.686Z,99829.21
2023-02-03T12:10:38.959Z,99829.55
2023-02-03T12:13:44.943Z,99830.59
2023-02-03T12:16:36.284Z,99828.89
2023-02-03T12:19:15.379Z,99821.20
2023-02-03T12:21:46.096Z,99816.40
2023-02-03T12:24:30.969Z,99812.48
2023-02-03T12:27:54.916Z,99812.81
2023-02-03T12:30:32.917Z,99812.82
2023-02-03T12:33:12.301Z,99811.78
2023-02-03T12:35:50.273Z,99815.54
2023-02-03T12:38:41.354Z,99814.35
2023-02-03T12:41:42.231Z,99802.22
2023-02-03T12:44:40.733Z,99809.39
2023-02-03T12:47:34.771Z,99810.06
2023-02-03T12:50:16.362Z,99808.70
2023-02-03T12:53:12.927Z,99809.89
2023-02-03T12:55:45.150Z,99809.71
2023-02-03T12:58:25.622Z,99797.74
2023-02-03T13:00:56.417Z,99796.38
2023-02-03T13:03:30.577Z,99792.78
2023-02-03T13:06:09.416Z,99790.38
2023-02-03T13:08:53.975Z,99784.24
2023-02-03T13:11:35.255Z,99780.32
2023-02-03T13:14:21.094Z,99772.30
2023-02-03T13:16:54.583Z,99769.23
2023-02-03T13:19:27.894Z,99775.03
2023-02-03T13:21:56.140Z,99775.38
2023-02-03T13:24:27.564Z,99779.12
2023-02-03T13:27:20.745Z,99778.44
2023-02-03T13:30:42.629Z,99766.31
2023-02-03T13:33:31.733Z,39904.29
2023-02-03T17:14:58.542Z,40017.55
2023-02-03T17:17:26.688Z,-1.00
2023-02-03T17:19:54.943Z,-1.00
2023-02-03T17:22:23.174Z,-1.00
2023-02-03T17:24:51.322Z,-1.00
2023-02-03T17:27:20.116Z,-1.00
2023-02-03T17:29:48.155Z,-1.00
2023-02-03T17:32:17.446Z,-1.00
2023-02-03T17:34:45.635Z,-1.00
2023-02-03T17:37:13.781Z,-1.00
2023-02-03T17:53:33.829Z,-1.00
2023-02-03T17:56:16.730Z,-1.00
2023-02-03T17:58:46.338Z,-1.00
2023-02-03T18:01:18.351Z,-1.00
2023-02-03T18:04:00.680Z,-1.00
2023-02-03T18:06:30.390Z,-1.00
2023-02-03T18:09:01.490Z,-1.00
2023-02-03T18:11:31.757Z,-1.00
2023-02-03T18:14:00.964Z,-1.00
2023-02-03T18:16:33.167Z,-1.00
2023-02-03T18:19:03.762Z,-1.00
2023-02-03T18:21:32.652Z,-1.00
2023-02-03T18:24:02.104Z,-1.00
2023-02-03T18:26:36.416Z,-1.00
2023-02-03T18:29:05.822Z,-1.00
2023-02-03T18:31:34.106Z,-1.00
2023-02-03T18:34:03.979Z,-1.00
2023-02-03T18:36:33.182Z,-1.00
2023-02-03T18:39:01.310Z,-1.00
2023-02-03T18:41:29.651Z,-1.00
2023-02-03T18:43:57.827Z,-1.00
2023-02-03T18:46:28.592Z,-1.00
2023-02-03T18:48:57.195Z,-1.00
2023-02-03T18:51:27.128Z,-1.00
2023-02-03T18:53:59.424Z,-1.00
2023-02-03T18:56:35.366Z,-1.00
2023-02-03T18:59:09.703Z,-1.00
2023-02-03T19:01:39.165Z,-1.00
2023-02-03T19:04:07.440Z,-1.00
2023-02-03T19:06:35.995Z,-1.00
2023-02-03T19:09:06.050Z,-1.00
2023-02-03T19:11:35.325Z,-1.00
2023-02-03T19:14:03.952Z,-1.00
2023-02-03T19:16:32.105Z,-1.00
2023-02-03T19:19:00.822Z,-1.00
2023-02-03T19:21:28.992Z,-1.00
2023-02-03T19:23:57.098Z,-1.00
2023-02-03T19:26:25.396Z,-1.00
2023-02-03T19:28:53.669Z,-1.00
2023-02-03T19:31:21.868Z,-1.00
2023-02-03T19:33:50.138Z,-1.00
2023-02-03T19:36:18.265Z,-1.00
2023-02-03T19:38:46.401Z,-1.00
2023-02-03T19:41:14.550Z,-1.00
2023-02-03T19:43:42.638Z,-1.00
2023-02-03T19:46:13.606Z,-1.00
2023-02-03T19:48:41.875Z,-1.00
2023-02-03T19:51:12.328Z,-1.00
2023-02-03T19:53:40.560Z,-1.00
2023-02-03T19:56:08.817Z,-1.00
2023-02-03T19:58:37.067Z,-1.00
2023-02-03T20:01:05.650Z,-1.00
2023-02-03T20:03:33.877Z,-1.00
2023-02-03T20:06:08.638Z,-1.00
2023-02-03T20:08:36.808Z,-1.00
2023-02-03T20:11:05.148Z,-1.00
2023-02-03T20:13:33.420Z,-1.00
2023-02-03T20:16:01.641Z,-1.00
2023-02-03T20:18:30.154Z,-1.00
2023-02-03T20:20:59.579Z,-1.00
2023-02-03T20:23:27.815Z,-1.00
2023-02-03T20:25:55.907Z,-1.00
2023-02-03T20:28:26.441Z,-1.00
2023-02-03T20:30:59.196Z,-1.00
2023-02-03T20:33:29.764Z,-1.00
2023-02-03T20:35:58.168Z,-1.00
2023-02-03T20:38:26.398Z,-1.00
2023-02-03T20:40:54.492Z,-1.00
2023-02-03T20:43:27.370Z,-1.00
2023-02-03T20:45:55.937Z,-1.00
2023-02-03T20:48:25.665Z,-1.00
2023-02-03T20:50:53.941Z,-1.00
2023-02-03T20:53:24.186Z,-1.00
2023-02-03T20:55:57.198Z,-1.00
2023-02-03T20:58:29.514Z,-1.00
2023-02-03T21:01:04.072Z,-1.00
2023-02-03T21:03:50.602Z,-1.00
2023-02-03T21:06:20.450Z,-1.00
2023-02-03T21:08:48.709Z,-1.00
2023-02-03T21:11:21.793Z,-1.00
2023-02-03T21:13:50.059Z,-1.00
2023-02-03T21:16:25.345Z,-1.00
2023-02-03T21:18:56.821Z,-1.00
2023-02-03T21:21:34.896Z,-1.00
2023-02-03T21:24:17.090Z,-1.00
2023-02-03T21:28:24.614Z,100803.46
2023-02-03T21:30:54.236Z,-1.00
2023-02-03T21:33:41.412Z,-1.00
2023-02-03T21:36:24.565Z,-1.00
2023-02-03T21:38:59.263Z,-1.00
2023-02-03T21:41:33.540Z,-1.00
2023-02-03T21:44:02.692Z,-1.00
2023-02-03T21:46:35.869Z,-1.00
2023-02-03T23:49:23.156Z,101211.23
2023-02-03T23:51:51.327Z,101226.40
2023-02-03T23:54:19.500Z,101232.41
2023-02-03T23:56:47.879Z,101242.54
2023-02-03T23:59:16.053Z,101247.23
